createdAt,value
2022-12-31T00:00:20.036Z,22.90
2022-12-31T00:02:22.647Z,23.45
2022-12-31T00:04:25.617Z,23.30
2022-12-31T00:06:34.362Z,22.83
2022-12-31T00:08:36.365Z,24.35
2022-12-31T00:10:47.844Z,23.98
2022-12-31T00:12:50.858Z,23.88
2022-12-31T00:14:54.775Z,25.10
2022-12-31T00:16:56.652Z,22.05
2022-12-31T00:19:00.772Z,21.30
2022-12-31T00:21:10.227Z,23.35
2022-12-31T00:23:15.262Z,21.48
2022-12-31T00:25:17.218Z,21.20
2022-12-31T00:27:19.191Z,24.55
2022-12-31T00:29:21.115Z,25.42
2022-12-31T00:31:26.294Z,23.48
2022-12-31T00:33:28.251Z,23.23
2022-12-31T00:35:31.022Z,23.35
2022-12-31T00:37:35.286Z,23.27
2022-12-31T00:39:38.225Z,23.63
2022-12-31T00:41:40.571Z,25.30
2022-12-31T00:43:42.762Z,23.38
2022-12-31T00:45:45.703Z,25.33
2022-12-31T00:47:47.658Z,26.27
2022-12-31T00:49:50.555Z,23.83
2022-12-31T00:51:53.481Z,24.00
2022-12-31T00:53:58.324Z,24.83
2022-12-31T00:56:02.922Z,21.98
2022-12-31T00:58:04.845Z,22.63
2022-12-31T01:00:07.881Z,23.60
2022-12-31T01:02:10.204Z,22.23
2022-12-31T01:04:15.680Z,20.48
2022-12-31T01:06:18.574Z,21.33
2022-12-31T01:08:24.348Z,20.40
2022-12-31T01:10:46.263Z,19.17
2022-12-31T01:12:50.256Z,20.02
2022-12-31T01:14:52.236Z,19.52
2022-12-31T01:16:56.300Z,19.00
2022-12-31T01:19:01.198Z,19.15
2022-12-31T01:21:05.185Z,19.83
2022-12-31T01:23:08.261Z,17.92
2022-12-31T01:25:10.266Z,18.95
2022-12-31T01:27:12.154Z,18.50
2022-12-31T01:29:14.960Z,18.52
2022-12-31T01:31:19.174Z,18.88
2022-12-31T01:33:21.217Z,19.45
2022-12-31T01:35:23.685Z,18.73
2022-12-31T01:37:26.587Z,18.65
2022-12-31T01:39:29.474Z,18.52
2022-12-31T01:41:34.764Z,17.88
2022-12-31T01:43:44.543Z,17.67
2022-12-31T01:45:52.115Z,17.38
2022-12-31T01:47:58.611Z,16.67
2022-12-31T01:50:31.475Z,17.23
2022-12-31T01:52:41.566Z,16.88
2022-12-31T01:55:17.186Z,17.20
2022-12-31T01:57:22.468Z,17.33
2022-12-31T01:59:28.203Z,16.55
2022-12-31T02:01:33.331Z,15.13
2022-12-31T02:03:35.912Z,15.93
2022-12-31T02:06:03.055Z,15.73
2022-12-31T02:08:07.830Z,15.98
2022-12-31T02:10:09.806Z,15.55
2022-12-31T02:12:12.790Z,15.98
2022-12-31T02:14:25.868Z,15.52
2022-12-31T02:16:59.683Z,16.13
2022-12-31T02:19:38.065Z,15.93
2022-12-31T02:21:42.776Z,15.07
2022-12-31T02:24:05.555Z,15.63
2022-12-31T02:26:31.785Z,14.85
2022-12-31T02:28:34.699Z,15.23
2022-12-31T02:30:37.751Z,13.75
2022-12-31T02:32:47.895Z,15.00
2022-12-31T02:34:59.163Z,13.75
2022-12-31T02:37:06.549Z,15.27
2022-12-31T02:39:12.032Z,13.82
2022-12-31T02:41:38.076Z,13.20
2022-12-31T02:43:47.078Z,11.90
2022-12-31T02:46:03.937Z,11.48
2022-12-31T02:48:23.904Z,11.18
2022-12-31T02:50:39.058Z,12.75
2022-12-31T02:52:59.475Z,11.50
2022-12-31T02:55:07.207Z,11.13
2022-12-31T02:57:11.791Z,10.48
2022-12-31T02:59:52.158Z,10.23
2022-12-31T03:02:14.606Z,10.05
2022-12-31T03:04:36.403Z,9.13
2022-12-31T03:06:42.348Z,9.18
2022-12-31T03:09:02.629Z,9.00
2022-12-31T03:11:24.509Z,9.20
2022-12-31T03:13:26.399Z,9.15
2022-12-31T03:15:34.353Z,8.95
2022-12-31T03:17:36.262Z,9.02
2022-12-31T03:19:57.966Z,8.57
2022-12-31T03:22:19.733Z,8.93
2022-12-31T03:26:44.071Z,9.40
2022-12-31T03:28:49.004Z,9.00
2022-12-31T03:30:59.931Z,9.02
2022-12-31T03:33:04.696Z,9.07
2022-12-31T03:35:08.645Z,9.38
2022-12-31T03:37:10.576Z,9.38
2022-12-31T03:39:14.677Z,9.60
2022-12-31T03:41:16.593Z,9.63
2022-12-31T03:43:20.567Z,9.38
2022-12-31T03:45:24.423Z,8.75
2022-12-31T03:47:27.568Z,9.48
2022-12-31T03:49:29.486Z,8.82
2022-12-31T03:51:31.391Z,9.18
2022-12-31T03:53:35.058Z,9.07
2022-12-31T03:55:37.318Z,9.80
2022-12-31T03:57:39.540Z,9.55
2022-12-31T03:59:43.540Z,10.20
2022-12-31T04:01:46.560Z,9.45
2022-12-31T04:03:48.622Z,8.73
2022-12-31T04:05:55.295Z,10.15
2022-12-31T04:07:58.261Z,9.50
2022-12-31T04:10:03.635Z,9.60
2022-12-31T04:12:05.994Z,10.05
2022-12-31T04:14:08.169Z,9.50
2022-12-31T04:16:10.320Z,9.50
2022-12-31T04:18:12.827Z,10.35
2022-12-31T04:20:16.106Z,9.50
2022-12-31T04:22:18.430Z,10.70
2022-12-31T04:24:20.510Z,10.20
2022-12-31T04:26:22.539Z,9.60
2022-12-31T04:28:24.492Z,9.70
2022-12-31T04:30:27.356Z,10.45
2022-12-31T04:32:29.255Z,10.25
2022-12-31T04:34:31.413Z,10.30
2022-12-31T04:36:33.447Z,10.43
2022-12-31T04:38:35.370Z,10.48
2022-12-31T04:40:58.404Z,10.43
2022-12-31T04:43:00.384Z,10.55
2022-12-31T04:45:02.522Z,10.30
2022-12-31T04:47:04.543Z,9.82
2022-12-31T04:49:06.646Z,10.55
2022-12-31T04:51:08.688Z,10.52
2022-12-31T04:53:10.517Z,9.93
2022-12-31T04:55:12.667Z,10.65
2022-12-31T04:57:14.619Z,9.57
2022-12-31T04:59:16.559Z,10.65
2022-12-31T05:01:18.617Z,10.63
2022-12-31T05:03:23.346Z,9.93
2022-12-31T05:05:25.320Z,9.63
2022-12-31T05:07:28.310Z,10.23
2022-12-31T05:09:31.212Z,10.38
2022-12-31T05:11:33.441Z,10.82
2022-12-31T05:13:39.044Z,10.70
2022-12-31T05:15:43.383Z,9.75
2022-12-31T05:17:45.333Z,9.18
2022-12-31T05:19:47.263Z,10.45
2022-12-31T05:22:09.105Z,10.00
2022-12-31T05:28:15.649Z,10.07
2022-12-31T05:30:18.964Z,9.73
2022-12-31T05:32:20.837Z,9.48
2022-12-31T05:34:22.672Z,9.15
2022-12-31T05:36:25.673Z,10.15
2022-12-31T05:38:28.637Z,9.60
2022-12-31T05:40:38.526Z,9.07
2022-12-31T05:42:40.557Z,8.98
2022-12-31T05:44:42.452Z,8.63
2022-12-31T05:46:44.607Z,8.93
2022-12-31T05:48:46.521Z,8.65
2022-12-31T05:50:49.766Z,8.63
2022-12-31T05:52:51.685Z,8.88
2022-12-31T05:54:53.609Z,7.55
2022-12-31T05:56:56.589Z,8.80
2022-12-31T05:58:58.606Z,8.70
2022-12-31T06:01:00.521Z,8.88
2022-12-31T06:03:03.651Z,9.02
2022-12-31T06:05:06.070Z,8.02
2022-12-31T06:07:08.081Z,7.90
2022-12-31T06:09:13.126Z,8.07
2022-12-31T06:11:15.084Z,8.05
2022-12-31T06:13:16.961Z,8.50
2022-12-31T06:15:19.941Z,8.35
2022-12-31T06:17:22.692Z,8.30
2022-12-31T06:19:24.986Z,8.68
2022-12-31T06:21:26.883Z,8.40
2022-12-31T06:23:30.034Z,8.45
2022-12-31T06:25:32.349Z,8.18
2022-12-31T06:27:35.328Z,8.07
2022-12-31T06:29:37.560Z,7.95
2022-12-31T06:31:39.467Z,8.23
2022-12-31T06:33:42.218Z,8.32
2022-12-31T06:35:45.147Z,8.07
2022-12-31T06:37:48.105Z,8.68
2022-12-31T06:39:50.244Z,7.28
2022-12-31T06:41:53.295Z,8.10
2022-12-31T06:43:55.240Z,8.30
2022-12-31T06:46:01.131Z,7.47
2022-12-31T06:48:03.111Z,8.10
2022-12-31T06:50:05.510Z,7.28
2022-12-31T06:52:07.523Z,7.63
2022-12-31T06:54:10.462Z,7.38
2022-12-31T06:56:18.466Z,7.45
2022-12-31T06:58:21.741Z,7.57
2022-12-31T07:00:24.064Z,8.10
2022-12-31T07:02:45.922Z,8.45
2022-12-31T07:05:12.171Z,8.20
2022-12-31T07:07:34.355Z,7.57
2022-12-31T07:09:58.178Z,8.07
2022-12-31T07:12:28.963Z,7.53
2022-12-31T07:14:52.946Z,6.65
2022-12-31T07:17:12.456Z,6.50
2022-12-31T07:19:57.913Z,7.05
2022-12-31T07:22:15.465Z,6.93
2022-12-31T07:24:23.553Z,6.75
2022-12-31T07:26:55.973Z,6.65
2022-12-31T07:29:17.928Z,6.47
2022-12-31T07:31:57.033Z,6.22
2022-12-31T07:34:40.911Z,6.28
2022-12-31T07:37:27.448Z,6.90
2022-12-31T07:40:02.612Z,7.55
2022-12-31T07:42:39.420Z,6.25
2022-12-31T07:45:20.860Z,6.65
2022-12-31T07:47:28.900Z,6.00
2022-12-31T07:49:44.265Z,7.15
2022-12-31T07:51:46.533Z,6.63
2022-12-31T07:53:49.409Z,7.03
2022-12-31T07:56:02.576Z,7.10
2022-12-31T07:58:29.126Z,6.53
2022-12-31T08:00:32.727Z,6.30
2022-12-31T08:02:53.529Z,6.15
2022-12-31T08:05:15.281Z,5.83
2022-12-31T08:07:32.162Z,6.00
2022-12-31T08:09:47.963Z,5.72
2022-12-31T08:11:59.964Z,5.53
2022-12-31T08:14:20.165Z,5.47
2022-12-31T08:16:22.518Z,5.53
2022-12-31T08:18:37.963Z,5.45
2022-12-31T08:21:11.426Z,4.90
2022-12-31T08:23:32.541Z,5.10
2022-12-31T08:25:53.336Z,5.22
2022-12-31T08:28:25.413Z,5.32
2022-12-31T08:31:01.260Z,5.47
2022-12-31T08:33:44.255Z,4.28
2022-12-31T08:36:22.220Z,4.20
2022-12-31T08:38:42.059Z,5.25
2022-12-31T08:41:02.743Z,5.05
2022-12-31T08:43:27.886Z,4.95
2022-12-31T08:46:01.708Z,5.10
2022-12-31T08:48:11.576Z,4.93
2022-12-31T08:50:16.176Z,5.60
2022-12-31T08:52:25.186Z,4.82
2022-12-31T08:54:27.898Z,5.30
2022-12-31T08:56:51.412Z,4.78
2022-12-31T08:59:30.461Z,4.82
2022-12-31T09:01:58.857Z,4.78
2022-12-31T09:04:30.617Z,5.22
2022-12-31T09:06:37.885Z,5.25
2022-12-31T09:08:39.776Z,4.32
2022-12-31T09:10:57.036Z,4.90
2022-12-31T09:13:19.695Z,5.00
2022-12-31T09:15:32.913Z,5.00
2022-12-31T09:17:49.278Z,5.57
2022-12-31T09:19:52.541Z,4.68
2022-12-31T09:21:56.725Z,4.60
2022-12-31T09:24:09.289Z,4.78
2022-12-31T09:26:48.562Z,5.40
2022-12-31T09:28:57.059Z,5.00
2022-12-31T09:31:40.685Z,4.88
2022-12-31T09:33:52.578Z,5.00
2022-12-31T09:35:57.980Z,5.60
2022-12-31T09:38:15.029Z,5.28
2022-12-31T09:40:48.062Z,4.82
2022-12-31T09:43:22.238Z,4.38
2022-12-31T09:45:32.952Z,4.45
2022-12-31T09:47:58.570Z,4.37
2022-12-31T09:50:37.874Z,4.57
2022-12-31T09:53:19.240Z,4.75
2022-12-31T09:55:34.208Z,4.63
2022-12-31T09:58:02.654Z,4.70
2022-12-31T10:00:15.752Z,4.10
2022-12-31T10:03:01.084Z,4.68
2022-12-31T10:05:21.922Z,4.10
2022-12-31T10:07:48.784Z,5.03
2022-12-31T10:10:15.102Z,4.15
2022-12-31T10:12:50.545Z,5.00
2022-12-31T10:15:14.059Z,4.32
2022-12-31T10:17:46.407Z,4.53
2022-12-31T10:20:18.278Z,4.53
2022-12-31T10:25:00.808Z,3.85
2022-12-31T10:27:28.851Z,3.75
2022-12-31T10:29:55.188Z,3.83
2022-12-31T10:32:23.725Z,3.75
2022-12-31T10:34:53.884Z,3.55
2022-12-31T10:37:17.541Z,4.00
2022-12-31T10:39:44.627Z,4.03
2022-12-31T10:42:01.091Z,3.78
2022-12-31T10:44:26.106Z,4.22
2022-12-31T10:47:12.107Z,3.97
2022-12-31T10:49:48.650Z,3.10
2022-12-31T10:52:45.602Z,3.80
2022-12-31T10:55:18.820Z,3.75
2022-12-31T10:58:04.274Z,3.67
2022-12-31T11:00:12.510Z,3.80
2022-12-31T11:02:30.660Z,3.88
2022-12-31T11:04:52.389Z,3.72
2022-12-31T11:07:29.655Z,3.80
2022-12-31T11:10:05.325Z,4.15
2022-12-31T11:12:34.965Z,3.97
2022-12-31T11:15:03.834Z,3.90
2022-12-31T11:17:28.652Z,4.05
2022-12-31T11:19:55.438Z,3.38
2022-12-31T11:22:44.995Z,4.00
2022-12-31T11:24:46.868Z,3.65
2022-12-31T11:27:06.749Z,3.63
2022-12-31T11:29:15.621Z,3.85
2022-12-31T11:31:21.264Z,3.60
2022-12-31T11:33:40.630Z,3.72
2022-12-31T11:38:09.063Z,3.58
2022-12-31T11:40:54.405Z,3.70
2022-12-31T11:43:23.867Z,4.00
2022-12-31T11:45:37.795Z,3.45
2022-12-31T11:50:32.714Z,3.70
2022-12-31T11:52:52.170Z,3.40
2022-12-31T11:55:03.328Z,3.53
2022-12-31T11:57:23.524Z,3.08
2022-12-31T11:59:25.428Z,3.15
2022-12-31T12:01:36.308Z,3.45
2022-12-31T12:03:43.440Z,2.97
2022-12-31T12:05:45.590Z,3.10
2022-12-31T12:07:49.410Z,3.55
2022-12-31T12:09:54.685Z,3.40
2022-12-31T12:12:01.988Z,3.80
2022-12-31T12:14:21.892Z,3.33
2022-12-31T12:16:26.323Z,3.40
2022-12-31T12:18:42.707Z,3.72
2022-12-31T12:20:49.353Z,4.15
2022-12-31T12:22:54.589Z,3.58
2022-12-31T12:25:16.207Z,3.85
2022-12-31T12:27:27.204Z,3.92
2022-12-31T12:29:36.779Z,3.72
2022-12-31T12:31:39.487Z,3.63
2022-12-31T12:33:46.880Z,3.45
2022-12-31T12:35:48.992Z,3.80
2022-12-31T12:38:03.507Z,3.60
2022-12-31T12:40:20.214Z,4.20
2022-12-31T12:42:23.237Z,3.30
2022-12-31T12:44:25.150Z,3.22
2022-12-31T12:46:49.417Z,3.33
2022-12-31T12:48:56.471Z,3.95
2022-12-31T12:51:00.286Z,3.72
2022-12-31T12:53:20.546Z,3.35
2022-12-31T12:55:54.626Z,3.55
2022-12-31T12:59:07.364Z,3.33
2022-12-31T13:01:31.410Z,3.50
2022-12-31T13:04:32.439Z,4.00
2022-12-31T13:06:28.167Z,3.72
2022-12-31T13:08:49.737Z,3.88
2022-12-31T13:11:29.923Z,4.03
2022-12-31T13:13:46.089Z,3.83
2022-12-31T13:16:25.879Z,3.50
2022-12-31T13:19:20.092Z,3.65
2022-12-31T13:21:37.277Z,4.28
2022-12-31T13:23:53.934Z,3.90
2022-12-31T13:26:15.422Z,3.90
2022-12-31T13:28:19.401Z,3.80
2022-12-31T13:30:25.405Z,4.10
2022-12-31T13:33:00.627Z,3.97
2022-12-31T13:35:18.826Z,3.35
2022-12-31T13:37:34.076Z,3.75
2022-12-31T13:39:42.158Z,3.92
2022-12-31T13:42:07.471Z,3.88
2022-12-31T13:44:19.627Z,4.05
2022-12-31T13:46:32.782Z,4.10
2022-12-31T13:48:40.692Z,3.85
2022-12-31T13:51:21.295Z,3.80
2022-12-31T13:53:30.767Z,3.80
2022-12-31T13:55:38.477Z,3.75
2022-12-31T13:58:06.750Z,3.50
2022-12-31T14:00:20.160Z,3.60
2022-12-31T14:02:55.922Z,4.28
2022-12-31T14:05:05.200Z,4.07
2022-12-31T14:07:18.638Z,3.88
2022-12-31T14:09:27.206Z,3.45
2022-12-31T14:12:07.806Z,3.92
2022-12-31T14:14:18.882Z,4.07
2022-12-31T14:16:56.169Z,4.10
2022-12-31T14:19:31.032Z,3.85
2022-12-31T14:21:45.227Z,3.42
2022-12-31T14:23:59.972Z,3.22
2022-12-31T14:26:19.028Z,3.50
2022-12-31T14:28:58.128Z,2.85
2022-12-31T14:31:28.265Z,3.60
2022-12-31T14:33:55.453Z,3.60
2022-12-31T14:36:15.401Z,3.65
2022-12-31T14:38:47.893Z,3.72
2022-12-31T14:41:17.242Z,3.85
2022-12-31T14:43:22.058Z,3.70
2022-12-31T14:45:42.288Z,3.95
2022-12-31T14:47:57.449Z,3.80
2022-12-31T14:50:12.439Z,3.97
2022-12-31T14:52:28.918Z,4.30
2022-12-31T14:54:38.345Z,4.03
2022-12-31T14:56:44.526Z,4.07
2022-12-31T14:58:56.274Z,4.05
2022-12-31T15:01:09.085Z,4.18
2022-12-31T15:03:14.009Z,4.20
2022-12-31T15:05:19.943Z,4.10
2022-12-31T15:07:37.340Z,4.65
2022-12-31T15:09:51.708Z,4.28
2022-12-31T15:12:15.320Z,4.45
2022-12-31T15:14:20.290Z,4.32
2022-12-31T15:16:57.776Z,3.58
2022-12-31T15:19:05.546Z,4.40
2022-12-31T15:21:26.148Z,3.75
2022-12-31T15:23:39.162Z,3.92
2022-12-31T15:25:48.640Z,4.53
2022-12-31T15:27:50.929Z,4.93
2022-12-31T15:29:53.989Z,4.68
2022-12-31T15:31:59.216Z,4.05
2022-12-31T15:34:05.761Z,4.53
2022-12-31T15:36:20.054Z,4.35
2022-12-31T15:38:33.281Z,4.65
2022-12-31T15:40:47.682Z,4.55
2022-12-31T15:43:03.053Z,3.85
2022-12-31T15:45:07.859Z,4.10
2022-12-31T15:47:09.823Z,3.95
2022-12-31T15:49:18.413Z,3.47
2022-12-31T15:51:26.326Z,3.63
2022-12-31T15:53:44.296Z,4.07
2022-12-31T15:55:53.892Z,3.60
2022-12-31T15:58:03.527Z,3.70
2022-12-31T16:00:20.063Z,4.30
2022-12-31T16:02:25.993Z,3.30
2022-12-31T16:04:30.087Z,3.70
2022-12-31T16:06:37.585Z,3.40
2022-12-31T16:08:44.087Z,3.47
2022-12-31T16:10:46.679Z,4.05
2022-12-31T16:12:49.104Z,3.33
2022-12-31T16:14:55.266Z,3.58
2022-12-31T16:17:00.682Z,3.50
2022-12-31T16:19:02.742Z,3.38
2022-12-31T16:21:04.797Z,3.72
2022-12-31T16:23:22.864Z,3.28
2022-12-31T16:25:31.090Z,3.20
2022-12-31T16:27:35.817Z,3.83
2022-12-31T16:29:42.076Z,3.95
2022-12-31T16:32:05.061Z,4.25
2022-12-31T16:34:13.725Z,3.80
2022-12-31T16:36:23.702Z,3.60
2022-12-31T16:38:37.143Z,3.30
2022-12-31T16:40:40.701Z,4.30
2022-12-31T16:42:47.433Z,4.00
2022-12-31T16:44:51.278Z,3.80
2022-12-31T16:46:57.550Z,4.50
2022-12-31T16:49:06.525Z,3.75
2022-12-31T16:51:17.263Z,3.58
2022-12-31T16:53:24.092Z,3.70
2022-12-31T16:55:29.057Z,4.00
2022-12-31T16:57:33.120Z,3.78
2022-12-31T16:59:47.421Z,3.92
2022-12-31T17:01:56.279Z,3.78
2022-12-31T17:04:01.277Z,3.95
2022-12-31T17:06:06.289Z,3.88
2022-12-31T17:08:38.726Z,3.58
2022-12-31T17:10:42.681Z,3.85
2022-12-31T17:13:27.419Z,3.95
2022-12-31T17:15:29.333Z,3.22
2022-12-31T17:17:37.634Z,3.75
2022-12-31T17:19:45.531Z,3.58
2022-12-31T17:21:48.832Z,3.40
2022-12-31T17:24:04.853Z,3.60
2022-12-31T17:26:15.558Z,4.38
2022-12-31T17:28:33.298Z,3.23
2022-12-31T17:30:40.555Z,3.47
2022-12-31T17:32:43.585Z,3.40
2022-12-31T17:34:50.221Z,3.50
2022-12-31T17:37:10.572Z,3.42
2022-12-31T17:39:19.199Z,3.20
2022-12-31T17:41:28.216Z,3.47
2022-12-31T17:43:35.370Z,4.00
2022-12-31T17:45:39.053Z,3.65
2022-12-31T17:47:48.311Z,3.33
2022-12-31T17:49:50.409Z,3.60
2022-12-31T17:51:53.524Z,3.67
2022-12-31T17:53:55.505Z,3.70
2022-12-31T17:56:03.079Z,3.05
2022-12-31T17:58:06.927Z,4.18
2022-12-31T18:00:17.752Z,3.80
2022-12-31T18:02:20.120Z,3.30
2022-12-31T18:04:22.195Z,3.33
2022-12-31T18:06:27.536Z,3.05
2022-12-31T18:08:31.633Z,3.28
2022-12-31T18:10:37.043Z,3.40
2022-12-31T18:12:39.565Z,3.35
2022-12-31T18:14:44.795Z,3.60
2022-12-31T18:16:48.419Z,3.25
2022-12-31T18:18:50.450Z,3.05
2022-12-31T18:20:59.635Z,3.72
2022-12-31T18:23:01.594Z,3.70
2022-12-31T18:25:04.545Z,3.58
2022-12-31T18:27:15.600Z,3.67
2022-12-31T18:29:20.132Z,3.70
2022-12-31T18:31:28.932Z,3.33
2022-12-31T18:33:32.083Z,3.90
2022-12-31T18:36:07.272Z,2.55
2022-12-31T18:37:58.416Z,3.25
2022-12-31T18:40:00.354Z,3.55
2022-12-31T18:42:03.331Z,3.40
2022-12-31T18:44:06.741Z,3.50
2022-12-31T18:46:12.757Z,3.60
2022-12-31T18:48:16.541Z,3.60
2022-12-31T18:50:18.596Z,3.70
2022-12-31T18:52:23.249Z,3.67
2022-12-31T18:54:25.164Z,3.38
2022-12-31T18:56:27.564Z,3.60
2022-12-31T18:58:30.500Z,3.58
2022-12-31T19:00:32.786Z,4.10
2022-12-31T19:02:36.972Z,3.90
2022-12-31T19:04:40.007Z,3.53
2022-12-31T19:06:45.970Z,3.60
2022-12-31T19:08:48.177Z,4.22
2022-12-31T19:10:52.378Z,4.00
2022-12-31T19:12:55.512Z,3.75
2022-12-31T19:14:57.497Z,3.70
2022-12-31T19:19:08.341Z,3.53
2022-12-31T19:21:17.446Z,4.00
2022-12-31T19:23:21.792Z,4.30
2022-12-31T19:25:33.955Z,4.00
2022-12-31T19:27:36.089Z,4.47
2022-12-31T19:29:42.205Z,3.58
2022-12-31T19:31:44.169Z,4.00
2022-12-31T19:33:51.365Z,3.95
2022-12-31T19:35:53.405Z,3.80
2022-12-31T19:37:56.495Z,3.38
2022-12-31T19:40:02.585Z,3.70
2022-12-31T19:42:04.923Z,3.70
2022-12-31T19:44:19.881Z,2.88
2022-12-31T19:46:22.295Z,3.67
2022-12-31T19:48:32.249Z,4.00
2022-12-31T19:50:47.050Z,3.55
2022-12-31T19:52:53.532Z,4.28
2022-12-31T19:54:57.569Z,3.60
2022-12-31T19:56:59.588Z,3.88
2022-12-31T19:59:12.109Z,4.03
2022-12-31T20:01:22.905Z,3.95
2022-12-31T20:05:44.824Z,3.55
2022-12-31T20:07:55.589Z,3.90
2022-12-31T20:09:57.597Z,3.10
2022-12-31T20:12:07.553Z,3.42
2022-12-31T20:14:10.785Z,3.80
2022-12-31T20:16:21.040Z,3.42
2022-12-31T20:18:38.709Z,3.65
2022-12-31T20:20:49.244Z,2.22
2022-12-31T20:23:11.675Z,2.15
2022-12-31T20:25:13.626Z,2.40
2022-12-31T20:27:18.768Z,2.10
2022-12-31T20:29:20.771Z,2.03
2022-12-31T20:31:34.619Z,1.63
2022-12-31T20:33:36.674Z,1.83
2022-12-31T20:35:42.370Z,1.70
2022-12-31T20:37:50.314Z,1.20
2022-12-31T20:39:57.977Z,2.22
2022-12-31T20:42:06.168Z,1.50
2022-12-31T20:44:14.387Z,1.40
2022-12-31T20:46:19.872Z,1.33
2022-12-31T20:48:22.943Z,1.83
2022-12-31T20:50:24.896Z,1.60
2022-12-31T20:52:29.166Z,1.20
2022-12-31T20:54:32.291Z,1.98
2022-12-31T20:56:37.847Z,1.55
2022-12-31T20:58:42.905Z,1.25
2022-12-31T21:00:53.247Z,1.50
2022-12-31T21:03:14.351Z,1.75
2022-12-31T21:05:24.322Z,1.30
2022-12-31T21:07:32.363Z,1.67
2022-12-31T21:09:37.410Z,1.38
2022-12-31T21:11:59.323Z,1.38
2022-12-31T21:14:03.365Z,1.27
2022-12-31T21:16:06.653Z,1.77
2022-12-31T21:18:09.733Z,1.92
2022-12-31T21:20:12.527Z,2.05
2022-12-31T21:22:15.619Z,1.95
2022-12-31T21:24:23.571Z,2.08
2022-12-31T21:26:27.975Z,1.85
2022-12-31T21:28:30.940Z,2.30
2022-12-31T21:30:32.946Z,1.40
2022-12-31T21:32:43.807Z,1.73
2022-12-31T21:35:00.235Z,1.20
2022-12-31T21:37:11.694Z,1.55
2022-12-31T21:39:20.539Z,1.13
2022-12-31T21:41:46.953Z,1.77
2022-12-31T21:43:56.551Z,1.92
2022-12-31T21:46:07.717Z,1.13
2022-12-31T21:48:23.479Z,1.88
2022-12-31T21:50:27.542Z,1.48
2022-12-31T21:52:36.500Z,1.52
2022-12-31T21:55:01.161Z,1.42
2022-12-31T21:57:11.229Z,1.55
2022-12-31T21:59:33.919Z,2.10
2022-12-31T22:01:57.406Z,1.85
2022-12-31T22:04:01.475Z,1.75
2022-12-31T22:06:16.352Z,1.17
2022-12-31T22:08:36.617Z,1.58
2022-12-31T22:10:50.339Z,1.42
2022-12-31T22:12:56.741Z,1.42
2022-12-31T22:15:15.671Z,1.13
2022-12-31T22:17:18.535Z,1.25
2022-12-31T22:19:24.943Z,1.52
2022-12-31T22:21:27.839Z,1.08
2022-12-31T22:23:30.611Z,1.73
2022-12-31T22:25:42.862Z,1.83
2022-12-31T22:28:11.458Z,1.50
2022-12-31T22:30:10.208Z,1.83
2022-12-31T22:32:12.413Z,1.38
2022-12-31T22:34:14.407Z,1.92
2022-12-31T22:36:20.120Z,1.42
2022-12-31T22:38:22.546Z,2.13
2022-12-31T22:40:25.631Z,1.50
2022-12-31T22:42:28.532Z,1.73
2022-12-31T22:44:30.636Z,1.65
2022-12-31T22:46:33.397Z,2.08
2022-12-31T22:48:38.039Z,1.48
2022-12-31T22:50:40.031Z,1.58
2022-12-31T22:52:42.127Z,1.42
2022-12-31T22:54:46.151Z,1.40
2022-12-31T22:56:48.227Z,1.92
2022-12-31T22:58:51.204Z,1.13
2022-12-31T23:00:53.846Z,1.50
2022-12-31T23:02:56.789Z,2.30
2022-12-31T23:05:15.481Z,2.08
2022-12-31T23:07:18.477Z,2.05
2022-12-31T23:09:39.904Z,2.30
2022-12-31T23:11:43.382Z,1.85
2022-12-31T23:14:04.012Z,2.28
2022-12-31T23:16:25.583Z,3.05
2022-12-31T23:18:46.050Z,1.88
2022-12-31T23:21:06.239Z,2.47
2022-12-31T23:23:16.374Z,1.98
2022-12-31T23:25:18.495Z,2.65
2022-12-31T23:27:20.550Z,2.72
2022-12-31T23:29:22.590Z,2.53
2022-12-31T23:31:28.882Z,2.40
2022-12-31T23:33:30.866Z,2.90
2022-12-31T23:35:33.065Z,2.03
2022-12-31T23:37:36.056Z,2.28
2022-12-31T23:39:40.168Z,2.92
2022-12-31T23:41:43.232Z,2.15
2022-12-31T23:43:45.679Z,3.25
2022-12-31T23:45:52.042Z,1.98
2022-12-31T23:47:53.983Z,1.70
2022-12-31T23:49:55.993Z,1.95
2022-12-31T23:51:58.991Z,1.80
2022-12-31T23:54:01.191Z,1.88
2022-12-31T23:56:16.197Z,2.55
2022-12-31T23:58:22.147Z,3.30
